»·PEaware :: N21100 KBLH-KNYL

N21100 :: KBLH-KNYL

FLIGHT INFORMATION

Flight Status: Arrived
Operator: Privately registered:
United States
More flights under this callsign
Pilot: Luke W. (11553)
Aircraft: CESSNA 172 SKYHAWK
(C172)
More flights by this aircraft type
Origin: KBLH Blythe
United States
Destination: KNYL Yuma MCAS/Yuma Intl
United States
More flights between these airports :: More routes between these airports
Route: BLH V135 BZA
File this flight plan on PilotEdge
Remarks:
Altitude:
(Current/Filed)
5,000ft
Speed:
(Current/Filed)
100kts
Departed: 28-Oct-17 09:33 PM
Arrived: 28-Oct-17 10:08 PM
Distance/Time
Traveled:
58nm/0:35
Distance/Time
To Go:
Arrived

Flight Plot

Page will automatically refresh every two minutes.

Flight plan parsing failed; only flown route is shown


Map Options




Map Legend


Flown Route
Filed Route
Departure Airport
Arrival Airport
Navaid (VOR, NDB)
Fix

Horizontal Profiles

Position Reports

Time Latitude Longitude Heading Altitude Ground
Speed
28-Oct-17 21:16 33.614051 -114.713080 90 394ft 0kts
28-Oct-17 21:17 33.614051 -114.713080 90 394ft 0kts
28-Oct-17 21:18 33.614051 -114.713080 90 394ft 0kts
28-Oct-17 21:19 33.614051 -114.713079 90 394ft 0kts
28-Oct-17 21:20 33.614051 -114.713079 90 394ft 0kts
28-Oct-17 21:21 33.614051 -114.713079 90 394ft 0kts
28-Oct-17 21:22 33.614051 -114.713079 90 394ft 0kts
28-Oct-17 21:23 33.614051 -114.713079 90 394ft 0kts
28-Oct-17 21:24 33.614051 -114.713079 90 394ft 0kts
28-Oct-17 21:25 33.614051 -114.713079 90 394ft 0kts
28-Oct-17 21:26 33.614051 -114.713079 90 394ft 0kts
28-Oct-17 21:27 33.614051 -114.713079 90 394ft 0kts
28-Oct-17 21:28 33.614051 -114.713079 90 394ft 0kts
28-Oct-17 21:29 33.614051 -114.713079 90 394ft 0kts
28-Oct-17 21:30 33.614051 -114.713079 90 394ft 0kts
28-Oct-17 21:31 33.614051 -114.713079 90 394ft 0kts
28-Oct-17 21:32 33.614051 -114.713079 90 394ft 0kts
28-Oct-17 21:33 33.614061 -114.712950 75 394ft 5kts
28-Oct-17 21:34 33.615143 -114.708482 89 394ft 14kts
28-Oct-17 21:35 33.615785 -114.706174 358 394ft 0kts
28-Oct-17 21:36 33.615785 -114.706174 358 394ft 0kts
28-Oct-17 21:37 33.616414 -114.706528 318 394ft 12kts
28-Oct-17 21:38 33.616094 -114.724064 255 931ft 72kts
28-Oct-17 21:39 33.604118 -114.746564 237 1772ft 89kts
28-Oct-17 21:40 33.582988 -114.757042 174 2580ft 96kts
28-Oct-17 21:41 33.556614 -114.752899 173 3369ft 97kts
28-Oct-17 21:42 33.530348 -114.748177 172 4161ft 95kts
28-Oct-17 21:43 33.505144 -114.743436 172 4924ft 94kts
28-Oct-17 21:44 33.475217 -114.737797 172 4972ft 112kts
28-Oct-17 21:45 33.444422 -114.731920 172 4972ft 112kts
28-Oct-17 21:46 33.413655 -114.726014 172 4972ft 112kts
28-Oct-17 21:47 33.382859 -114.720121 171 4973ft 112kts
28-Oct-17 21:48 33.352406 -114.714240 172 4972ft 112kts
28-Oct-17 21:49 33.321684 -114.708341 172 4972ft 112kts
28-Oct-17 21:50 33.291033 -114.702458 172 4973ft 112kts
28-Oct-17 21:51 33.260038 -114.696523 172 4972ft 113kts
28-Oct-17 21:52 33.229908 -114.690757 171 4998ft 113kts
28-Oct-17 21:53 33.199019 -114.684847 170 4996ft 114kts
28-Oct-17 21:54 33.167796 -114.678874 170 4994ft 114kts
28-Oct-17 21:55 33.141586 -114.673861 169 4992ft 114kts
28-Oct-17 21:56 33.105549 -114.666961 168 4991ft 114kts
28-Oct-17 21:57 33.074398 -114.660998 168 4991ft 112kts
28-Oct-17 21:58 33.048686 -114.656086 169 4991ft 112kts
28-Oct-17 21:59 33.018303 -114.650289 169 4991ft 112kts
28-Oct-17 22:00 32.982280 -114.643422 169 4991ft 112kts
28-Oct-17 22:01 32.951768 -114.637616 169 4991ft 112kts
28-Oct-17 22:02 32.926058 -114.632728 169 4991ft 112kts
28-Oct-17 22:03 32.896306 -114.627072 169 4990ft 112kts
28-Oct-17 22:04 32.866587 -114.621456 169 4990ft 111kts
28-Oct-17 22:05 32.836443 -114.615762 169 4990ft 111kts
28-Oct-17 22:06 32.805712 -114.610134 171 4945ft 113kts
28-Oct-17 22:07 32.776514 -114.601259 146 4220ft 110kts
28-Oct-17 22:08 32.750406 -114.585685 158 3317ft 106kts
28-Oct-17 22:09 32.723456 -114.573132 155 2409ft 104kts
28-Oct-17 22:10 32.695882 -114.571982 180 1496ft 103kts
28-Oct-17 22:11 32.673412 -114.572573 183 822ft 62kts
28-Oct-17 22:12 32.666143 -114.586528 269 223ft 55kts
28-Oct-17 22:13 32.665273 -114.591014 182 212ft 0kts
28-Oct-17 22:14 32.665261 -114.591015 182 212ft 2kts
28-Oct-17 22:15 32.662540 -114.592942 267 207ft 23kts
28-Oct-17 22:16 32.662016 -114.598536 316 197ft 17kts
28-Oct-17 22:17 32.659493 -114.603366 224 193ft 14kts
28-Oct-17 22:18 32.660925 -114.605544 358 193ft 15kts
28-Oct-17 22:19 32.661681 -114.609333 198 192ft 12kts
28-Oct-17 22:20 32.661313 -114.609530 358 192ft 0kts

Navigation Log

Ident Type
Flight plan parsing failed, navigation log unavailable